createdAt,value
2019-05-15T00:00:22.859Z,11.10
2019-05-15T00:02:51.983Z,11.10
2019-05-15T00:05:20.949Z,11.10
2019-05-15T00:07:49.979Z,11.00
2019-05-15T00:10:19.002Z,11.00
2019-05-15T00:12:48.646Z,11.00
2019-05-15T00:15:18.338Z,11.00
2019-05-15T00:17:48.522Z,10.90
2019-05-15T00:20:20.073Z,10.90
2019-05-15T00:22:48.570Z,10.90
2019-05-15T00:25:18.842Z,10.80
2019-05-15T00:27:49.088Z,10.80
2019-05-15T00:30:18.510Z,10.80
2019-05-15T00:32:48.696Z,10.80
2019-05-15T00:35:18.485Z,10.70
2019-05-15T00:37:49.273Z,10.70
2019-05-15T00:40:18.698Z,10.70
2019-05-15T00:42:48.778Z,10.60
2019-05-15T00:45:18.624Z,10.60
2019-05-15T00:47:48.641Z,10.60
2019-05-15T00:50:18.346Z,10.50
2019-05-15T00:52:48.452Z,10.50
2019-05-15T00:55:19.145Z,10.40
2019-05-15T00:57:48.646Z,10.40
2019-05-15T01:00:38.167Z,10.40
2019-05-15T01:03:08.839Z,10.30
2019-05-15T01:05:38.799Z,10.30
2019-05-15T01:08:08.401Z,10.30
2019-05-15T01:10:39.039Z,10.20
2019-05-15T01:13:08.632Z,10.20
2019-05-15T01:15:38.682Z,10.20
2019-05-15T01:18:09.310Z,10.10
2019-05-15T01:20:39.352Z,10.10
2019-05-15T01:23:09.166Z,10.00
2019-05-15T01:25:38.926Z,10.00
2019-05-15T01:28:09.460Z,10.00
2019-05-15T01:30:39.299Z,9.90
2019-05-15T01:33:11.720Z,9.80
2019-05-15T01:35:40.673Z,9.80
2019-05-15T01:38:09.720Z,9.80
2019-05-15T01:40:38.848Z,9.80
2019-05-15T01:43:09.197Z,9.70
2019-05-15T01:45:39.359Z,9.70
2019-05-15T01:48:08.788Z,9.70
2019-05-15T01:50:38.815Z,9.60
2019-05-15T01:53:08.523Z,9.60
2019-05-15T01:55:39.444Z,9.60
2019-05-15T01:58:09.076Z,9.60
2019-05-15T02:00:39.398Z,9.60
2019-05-15T02:03:09.711Z,9.60
2019-05-15T02:05:39.506Z,9.60
2019-05-15T02:08:08.706Z,9.60
2019-05-15T02:10:39.087Z,9.60
2019-05-15T02:13:08.937Z,9.60
2019-05-15T02:15:39.406Z,9.50
2019-05-15T02:18:08.959Z,9.50
2019-05-15T02:20:38.994Z,9.50
2019-05-15T02:23:11.517Z,9.50
2019-05-15T02:25:39.734Z,9.50
2019-05-15T02:28:09.453Z,9.50
2019-05-15T02:30:40.265Z,9.50
2019-05-15T02:33:10.540Z,9.50
2019-05-15T02:35:40.102Z,9.50
2019-05-15T02:38:11.296Z,9.40
2019-05-15T02:40:40.754Z,9.40
2019-05-15T02:43:10.591Z,9.40
2019-05-15T02:45:42.112Z,9.40
2019-05-15T02:48:10.666Z,9.30
2019-05-15T02:50:39.595Z,9.30
2019-05-15T02:53:10.065Z,9.30
2019-05-15T02:55:40.213Z,9.20
2019-05-15T02:58:10.645Z,9.20
2019-05-15T03:00:47.428Z,9.20
2019-05-15T03:03:10.735Z,9.10
2019-05-15T03:05:40.643Z,9.10
2019-05-15T03:08:10.293Z,9.00
2019-05-15T03:10:40.697Z,9.00
2019-05-15T03:13:10.487Z,9.00
2019-05-15T03:15:40.969Z,9.00
2019-05-15T03:18:10.445Z,8.90
2019-05-15T03:20:39.989Z,8.90
2019-05-15T03:23:09.873Z,8.90
2019-05-15T03:25:40.534Z,8.90
2019-05-15T03:28:10.772Z,8.90
2019-05-15T03:31:12.106Z,8.90
2019-05-15T03:33:18.778Z,8.90
2019-05-15T03:35:45.117Z,8.80
2019-05-15T03:38:14.410Z,8.80
2019-05-15T03:40:43.515Z,8.80
2019-05-15T03:43:12.553Z,8.70
2019-05-15T03:45:41.497Z,8.70
2019-05-15T03:48:10.662Z,8.60
2019-05-15T03:50:40.586Z,8.60
2019-05-15T03:53:10.516Z,8.60
2019-05-15T03:55:40.732Z,8.60
2019-05-15T03:58:10.639Z,8.70
2019-05-15T04:00:40.095Z,8.60
2019-05-15T04:03:10.847Z,8.60
2019-05-15T04:05:40.202Z,8.70
2019-05-15T04:08:10.840Z,8.70
2019-05-15T04:10:40.302Z,8.70
2019-05-15T04:13:09.947Z,8.70
2019-05-15T04:15:39.915Z,8.70
2019-05-15T04:18:09.499Z,8.70
2019-05-15T04:20:40.385Z,8.70
2019-05-15T04:23:10.445Z,8.60
2019-05-15T04:25:39.732Z,8.60
2019-05-15T04:28:11.505Z,8.60
2019-05-15T04:30:40.554Z,8.60
2019-05-15T04:33:10.037Z,8.60
2019-05-15T04:35:40.369Z,8.60
2019-05-15T04:38:10.007Z,8.60
2019-05-15T04:40:39.928Z,8.70
2019-05-15T04:43:10.559Z,8.70
2019-05-15T04:45:39.931Z,8.80
2019-05-15T04:48:11.729Z,8.80
2019-05-15T04:50:40.633Z,8.80
2019-05-15T04:53:10.984Z,8.80
2019-05-15T04:55:40.966Z,8.90
2019-05-15T04:58:13.343Z,9.00
2019-05-15T05:00:53.809Z,9.00
2019-05-15T05:03:22.940Z,9.10
2019-05-15T05:05:52.133Z,9.20
2019-05-15T05:08:21.349Z,9.20
2019-05-15T05:10:50.614Z,9.30
2019-05-15T05:13:20.511Z,9.40
2019-05-15T05:15:50.667Z,9.50
2019-05-15T05:18:20.246Z,9.50
2019-05-15T05:20:49.082Z,9.70
2019-05-15T05:23:19.188Z,9.80
2019-05-15T05:25:49.307Z,9.90
2019-05-15T05:28:18.754Z,9.90
2019-05-15T05:30:48.437Z,10.00
2019-05-15T05:33:18.192Z,10.10
2019-05-15T05:35:48.549Z,10.20
2019-05-15T05:38:23.476Z,10.30
2019-05-15T05:40:52.583Z,10.30
2019-05-15T05:43:21.554Z,10.50
2019-05-15T05:45:50.535Z,10.70
2019-05-15T05:48:19.531Z,10.80
2019-05-15T05:50:49.627Z,10.90
2019-05-15T05:53:21.398Z,11.10
2019-05-15T05:55:52.937Z,11.30
2019-05-15T05:58:20.792Z,11.40
2019-05-15T06:00:50.074Z,11.50
2019-05-15T06:03:19.590Z,11.50
2019-05-15T06:05:49.886Z,11.60
2019-05-15T06:08:19.758Z,11.70
2019-05-15T06:10:49.631Z,11.70
2019-05-15T06:13:19.186Z,11.90
2019-05-15T06:15:48.864Z,12.00
2019-05-15T06:18:19.680Z,12.00
2019-05-15T06:20:49.786Z,12.00
2019-05-15T06:23:23.202Z,12.00
2019-05-15T06:25:50.196Z,12.20
2019-05-15T06:28:20.235Z,12.20
2019-05-15T06:30:49.870Z,12.20
2019-05-15T06:33:19.140Z,12.20
2019-05-15T06:35:49.948Z,12.20
2019-05-15T06:38:19.862Z,12.30
2019-05-15T06:40:49.868Z,12.40
2019-05-15T06:43:19.631Z,12.60
2019-05-15T06:45:49.502Z,12.70
2019-05-15T06:48:18.820Z,12.70
2019-05-15T06:50:48.922Z,12.80
2019-05-15T06:53:19.172Z,12.90
2019-05-15T06:55:49.171Z,13.00
2019-05-15T06:58:19.461Z,13.00
2019-05-15T07:00:49.710Z,13.10
2019-05-15T07:03:25.453Z,13.20
2019-05-15T07:05:51.079Z,13.30
2019-05-15T07:08:20.403Z,13.30
2019-05-15T07:10:49.448Z,13.30
2019-05-15T07:13:18.827Z,13.30
2019-05-15T07:15:49.487Z,13.30
2019-05-15T07:18:19.918Z,13.40
2019-05-15T07:20:49.928Z,13.40
2019-05-15T07:23:19.247Z,13.50
2019-05-15T07:25:50.328Z,13.60
2019-05-15T07:28:19.799Z,13.70
2019-05-15T07:30:49.676Z,13.70
2019-05-15T07:33:35.324Z,13.80
2019-05-15T07:35:50.192Z,13.80
2019-05-15T07:38:19.331Z,13.80
2019-05-15T07:40:59.633Z,13.90
2019-05-15T07:43:24.293Z,13.90
2019-05-15T07:45:55.780Z,13.80
2019-05-15T07:48:24.929Z,13.80
2019-05-15T07:50:54.280Z,13.80
2019-05-15T07:53:23.509Z,13.90
2019-05-15T07:55:52.710Z,14.00
2019-05-15T07:58:22.195Z,14.10
2019-05-15T08:00:51.332Z,14.20
2019-05-15T08:03:20.452Z,14.40
2019-05-15T08:05:58.718Z,14.60
2019-05-15T08:08:20.506Z,14.60
2019-05-15T08:10:50.142Z,14.70
2019-05-15T08:13:22.355Z,14.80
2019-05-15T08:15:51.510Z,14.90
2019-05-15T08:18:20.753Z,15.00
2019-05-15T08:20:50.296Z,15.00
2019-05-15T08:23:19.769Z,15.10
2019-05-15T08:25:49.093Z,15.20
2019-05-15T08:28:19.151Z,15.20
2019-05-15T08:30:49.772Z,15.30
2019-05-15T08:33:19.410Z,15.40
2019-05-15T08:35:51.665Z,15.50
2019-05-15T08:38:19.831Z,15.60
2019-05-15T08:40:49.399Z,15.70
2019-05-15T08:43:18.792Z,15.80
2019-05-15T08:45:49.825Z,15.80
2019-05-15T08:48:19.369Z,16.00
2019-05-15T08:50:49.106Z,16.10
2019-05-15T08:53:19.275Z,16.30
2019-05-15T08:55:49.268Z,16.40
2019-05-15T08:58:20.142Z,16.60
2019-05-15T09:00:52.212Z,16.70
2019-05-15T09:03:20.729Z,16.80
2019-05-15T09:05:50.227Z,16.80
2019-05-15T09:08:20.315Z,16.80
2019-05-15T09:10:50.503Z,16.80
2019-05-15T09:13:22.956Z,16.90
2019-05-15T09:15:52.480Z,16.90
2019-05-15T09:18:21.830Z,17.00
2019-05-15T09:20:54.727Z,17.20
2019-05-15T09:23:24.711Z,17.50
2019-05-15T09:25:53.913Z,17.70
2019-05-15T09:28:29.717Z,17.60
2019-05-15T09:31:00.273Z,17.60
2019-05-15T09:33:29.718Z,17.50
2019-05-15T09:36:12.409Z,17.50
2019-05-15T09:38:42.117Z,17.50
2019-05-15T09:41:14.493Z,17.40
2019-05-15T09:43:44.455Z,17.60
2019-05-15T09:46:18.284Z,17.90
2019-05-15T09:48:51.666Z,18.00
2019-05-15T09:51:18.952Z,18.20
2019-05-15T09:53:48.663Z,18.20
2019-05-15T09:56:18.694Z,18.40
2019-05-15T09:58:49.113Z,18.60
2019-05-15T10:01:19.652Z,18.80
2019-05-15T10:03:52.242Z,18.90
2019-05-15T10:06:21.652Z,19.10
2019-05-15T10:08:51.672Z,18.80
2019-05-15T10:11:24.159Z,18.70
2019-05-15T10:13:53.524Z,18.50
2019-05-15T10:16:23.480Z,18.50
2019-05-15T10:18:53.787Z,18.70
2019-05-15T10:21:23.189Z,18.70
2019-05-15T10:23:52.445Z,18.60
2019-05-15T10:26:22.012Z,18.60
2019-05-15T10:28:51.350Z,18.60
2019-05-15T10:31:21.159Z,18.70
2019-05-15T10:33:50.688Z,18.70
2019-05-15T10:36:19.985Z,18.90
2019-05-15T10:38:49.487Z,18.80
2019-05-15T10:41:20.534Z,18.80
2019-05-15T10:43:56.344Z,18.70
2019-05-15T10:46:21.027Z,18.80
2019-05-15T10:48:58.791Z,18.70
2019-05-15T10:51:30.284Z,18.80
2019-05-15T10:53:59.761Z,18.80
2019-05-15T10:56:29.318Z,18.70
2019-05-15T10:59:00.810Z,19.10
2019-05-15T11:01:29.955Z,19.40
2019-05-15T11:03:59.324Z,19.40
2019-05-15T11:06:28.915Z,19.50
2019-05-15T11:08:58.558Z,19.60
2019-05-15T11:11:32.909Z,20.00
2019-05-15T11:14:02.252Z,19.90
2019-05-15T11:16:31.536Z,19.80
2019-05-15T11:19:07.893Z,20.00
2019-05-15T11:22:42.824Z,20.20
2019-05-15T11:25:13.241Z,20.40
2019-05-15T11:27:42.468Z,20.30
2019-05-15T11:30:11.677Z,19.90
2019-05-15T11:32:40.459Z,19.70
2019-05-15T11:35:09.671Z,19.80
2019-05-15T11:37:45.885Z,20.00
2019-05-15T11:40:11.575Z,20.20
2019-05-15T11:42:40.525Z,20.10
2019-05-15T11:45:09.985Z,19.90
2019-05-15T11:47:40.322Z,20.00
2019-05-15T11:50:10.467Z,20.20
2019-05-15T11:52:40.348Z,20.10
2019-05-15T11:55:09.852Z,19.90
2019-05-15T11:57:46.007Z,19.80
2019-05-15T12:00:17.073Z,19.70
2019-05-15T12:02:41.416Z,19.60
2019-05-15T12:05:10.619Z,19.80
2019-05-15T12:07:39.516Z,20.00
2019-05-15T12:10:10.562Z,20.10
2019-05-15T12:12:39.471Z,20.20
2019-05-15T12:15:09.160Z,20.20
2019-05-15T12:22:39.927Z,20.60
2019-05-15T12:25:10.447Z,20.60
2019-05-15T12:27:40.389Z,20.10
2019-05-15T12:30:12.205Z,20.10
2019-05-15T12:32:41.056Z,20.10
2019-05-15T12:35:10.083Z,20.30
2019-05-15T12:37:40.151Z,20.60
2019-05-15T13:00:18.569Z,20.00
2019-05-15T13:02:49.354Z,19.80
2019-05-15T13:05:19.213Z,19.50
2019-05-15T13:07:48.450Z,19.30
2019-05-15T13:10:18.440Z,19.20
2019-05-15T13:12:59.264Z,19.30
2019-05-15T13:15:19.021Z,19.20
2019-05-15T13:17:52.778Z,19.50
2019-05-15T13:20:18.621Z,19.80
2019-05-15T13:25:18.857Z,20.10
2019-05-15T13:27:48.837Z,20.10
2019-05-15T13:30:18.616Z,20.00
2019-05-15T13:32:49.604Z,19.90
2019-05-15T13:35:18.484Z,19.70
2019-05-15T13:37:49.439Z,19.80
2019-05-15T13:40:18.767Z,19.90
2019-05-15T13:42:49.255Z,20.10
2019-05-15T13:45:18.737Z,20.10
2019-05-15T13:47:47.680Z,20.30
2019-05-15T13:50:19.434Z,20.40
2019-05-15T13:52:48.231Z,20.30
2019-05-15T13:55:24.709Z,20.30
2019-05-15T13:57:48.600Z,20.20
2019-05-15T14:00:17.931Z,20.00
2019-05-15T14:02:48.011Z,19.80
2019-05-15T14:05:17.079Z,20.00
2019-05-15T14:07:50.714Z,20.00
2019-05-15T14:10:18.121Z,20.00
2019-05-15T14:12:47.862Z,20.20
2019-05-15T14:15:17.565Z,20.10
2019-05-15T14:17:48.276Z,19.90
2019-05-15T14:20:17.499Z,19.50
2019-05-15T14:22:48.428Z,19.50
2019-05-15T14:25:18.170Z,19.60
2019-05-15T14:27:48.623Z,19.70
2019-05-15T14:30:18.187Z,19.70
2019-05-15T14:32:48.478Z,19.70
2019-05-15T14:35:18.101Z,19.50
2019-05-15T14:38:01.831Z,19.60
2019-05-15T14:40:18.550Z,19.50
2019-05-15T14:42:48.571Z,19.50
2019-05-15T14:45:19.206Z,19.60
2019-05-15T14:47:49.185Z,19.80
2019-05-15T14:50:18.625Z,20.00
2019-05-15T14:52:47.944Z,20.10
2019-05-15T14:55:17.096Z,20.30
2019-05-15T14:57:48.480Z,20.40
2019-05-15T15:00:19.932Z,20.50
2019-05-15T15:02:49.418Z,20.30
2019-05-15T15:05:21.515Z,19.80
2019-05-15T15:07:49.292Z,19.60
2019-05-15T15:10:20.187Z,19.50
2019-05-15T15:12:49.974Z,19.60
2019-05-15T15:15:19.051Z,19.80
2019-05-15T15:17:49.291Z,19.80
2019-05-15T15:20:18.315Z,19.90
2019-05-15T15:22:48.488Z,19.80
2019-05-15T15:25:17.824Z,19.80
2019-05-15T15:27:48.054Z,19.90
2019-05-15T15:30:18.976Z,19.90
2019-05-15T15:32:49.167Z,19.90
2019-05-15T15:35:18.609Z,19.90
2019-05-15T15:37:48.692Z,20.00
2019-05-15T15:40:18.920Z,19.80
2019-05-15T15:42:48.494Z,19.90
2019-05-15T15:45:19.340Z,19.90
2019-05-15T15:47:48.290Z,19.80
2019-05-15T15:50:18.361Z,19.60
2019-05-15T15:52:48.921Z,19.70
2019-05-15T15:55:18.618Z,19.80
2019-05-15T15:57:48.661Z,19.80
2019-05-15T16:00:19.229Z,19.80
2019-05-15T16:02:48.564Z,19.70
2019-05-15T16:05:19.039Z,19.70
2019-05-15T16:07:48.671Z,19.60
2019-05-15T16:10:18.968Z,19.70
2019-05-15T16:12:49.238Z,19.80
2019-05-15T16:15:18.268Z,19.90
2019-05-15T16:17:48.809Z,20.10
2019-05-15T16:20:18.879Z,20.10
2019-05-15T16:22:48.604Z,20.00
2019-05-15T16:25:18.442Z,20.10
2019-05-15T16:27:48.798Z,20.00
2019-05-15T16:30:18.711Z,19.80
2019-05-15T16:32:47.928Z,19.90
2019-05-15T16:35:18.462Z,19.90
2019-05-15T16:37:49.223Z,19.70
2019-05-15T16:40:18.545Z,19.50
2019-05-15T16:42:48.829Z,19.50
2019-05-15T16:45:18.337Z,19.50
2019-05-15T16:47:48.048Z,19.50
2019-05-15T16:50:18.103Z,19.50
2019-05-15T16:52:48.999Z,19.50
2019-05-15T16:55:17.815Z,19.70
2019-05-15T16:57:48.000Z,19.80
2019-05-15T17:00:18.648Z,19.80
2019-05-15T17:02:48.306Z,19.50
2019-05-15T17:05:18.587Z,19.20
2019-05-15T17:07:48.882Z,19.10
2019-05-15T17:10:18.291Z,19.10
2019-05-15T17:12:49.206Z,19.00
2019-05-15T17:15:18.983Z,18.80
2019-05-15T17:17:48.730Z,18.70
2019-05-15T17:20:19.088Z,18.60
2019-05-15T17:22:48.367Z,18.60
2019-05-15T17:25:18.350Z,18.50
2019-05-15T17:27:47.580Z,18.40
2019-05-15T17:30:18.253Z,18.30
2019-05-15T17:32:49.240Z,18.20
2019-05-15T17:35:18.554Z,18.10
2019-05-15T17:37:48.738Z,18.10
2019-05-15T17:40:17.992Z,18.00
2019-05-15T17:42:49.240Z,17.90
2019-05-15T17:45:19.505Z,17.80
2019-05-15T17:47:49.094Z,17.70
2019-05-15T17:50:21.175Z,17.60
2019-05-15T17:52:50.092Z,17.50
2019-05-15T17:55:19.123Z,17.50
2019-05-15T17:57:57.065Z,17.40
2019-05-15T18:00:20.816Z,17.40
2019-05-15T18:02:52.640Z,17.50
2019-05-15T18:05:25.272Z,17.50
2019-05-15T18:07:58.426Z,17.50
2019-05-15T18:10:30.092Z,17.40
2019-05-15T18:12:59.071Z,17.30
2019-05-15T18:15:28.233Z,17.20
2019-05-15T18:17:59.252Z,17.20
2019-05-15T18:20:29.553Z,17.10
2019-05-15T18:23:04.613Z,17.10
2019-05-15T18:25:38.367Z,17.10
2019-05-15T18:28:08.478Z,17.10
2019-05-15T18:30:38.976Z,17.00
2019-05-15T18:33:08.942Z,16.90
2019-05-15T18:35:39.704Z,17.00
2019-05-15T18:38:08.755Z,17.00
2019-05-15T18:40:38.385Z,17.00
2019-05-15T18:43:10.064Z,17.00
2019-05-15T18:45:38.421Z,16.90
2019-05-15T18:48:08.081Z,16.80
2019-05-15T18:50:37.806Z,16.70
2019-05-15T18:53:09.077Z,16.70
2019-05-15T18:55:38.552Z,16.70
2019-05-15T18:58:08.752Z,16.70
2019-05-15T19:00:39.970Z,16.60
2019-05-15T19:03:19.148Z,16.50
2019-05-15T19:05:39.774Z,16.40
2019-05-15T19:08:08.695Z,16.40
2019-05-15T19:10:38.575Z,16.30
2019-05-15T19:13:08.593Z,16.30
2019-05-15T19:15:38.174Z,16.20
2019-05-15T19:18:08.024Z,16.20
2019-05-15T19:20:38.900Z,16.10
2019-05-15T19:23:08.240Z,16.10
2019-05-15T19:25:37.582Z,16.10
2019-05-15T19:28:08.448Z,16.10
2019-05-15T19:30:38.886Z,16.00
2019-05-15T19:33:08.251Z,15.90
2019-05-15T19:35:38.693Z,15.90
2019-05-15T19:38:07.941Z,15.90
2019-05-15T19:40:38.986Z,15.80
2019-05-15T19:43:09.193Z,15.70
2019-05-15T19:45:38.745Z,15.60
2019-05-15T19:48:08.970Z,15.40
2019-05-15T19:50:38.458Z,15.30
2019-05-15T19:53:08.242Z,15.30
2019-05-15T19:55:37.095Z,15.20
2019-05-15T19:58:05.931Z,15.20
2019-05-15T20:00:35.042Z,15.20
2019-05-15T20:03:03.951Z,15.10
2019-05-15T20:05:32.754Z,15.10
2019-05-15T20:08:01.714Z,15.00
2019-05-15T20:10:30.698Z,15.00
2019-05-15T20:13:00.286Z,14.90
2019-05-15T20:15:32.295Z,14.90
2019-05-15T20:18:01.153Z,14.80
2019-05-15T20:20:30.173Z,14.70
2019-05-15T20:23:00.504Z,14.70
2019-05-15T20:25:29.595Z,14.70
2019-05-15T20:27:58.450Z,14.70
2019-05-15T20:30:28.580Z,14.60
2019-05-15T20:32:58.523Z,14.60
2019-05-15T20:35:28.215Z,14.60
2019-05-15T20:37:58.158Z,14.50
2019-05-15T20:40:27.620Z,14.50
2019-05-15T20:42:58.955Z,14.50
2019-05-15T20:45:29.179Z,14.40
2019-05-15T20:47:58.499Z,14.40
2019-05-15T20:50:28.242Z,14.30
2019-05-15T20:52:58.753Z,14.20
2019-05-15T20:55:27.788Z,14.20
2019-05-15T20:57:58.606Z,14.20
2019-05-15T21:00:27.651Z,14.20
2019-05-15T21:02:57.831Z,14.10
2019-05-15T21:05:27.809Z,14.10
2019-05-15T21:07:57.131Z,14.00
2019-05-15T21:10:25.969Z,14.00
2019-05-15T21:12:54.737Z,13.90
2019-05-15T21:15:24.320Z,13.90
2019-05-15T21:18:07.415Z,13.80
2019-05-15T21:20:23.662Z,13.80
2019-05-15T21:22:52.518Z,13.70
2019-05-15T21:25:21.533Z,13.60
2019-05-15T21:27:50.271Z,13.60
2019-05-15T21:30:20.079Z,13.60
2019-05-15T21:32:49.616Z,13.60
2019-05-15T21:35:18.662Z,13.50
2019-05-15T21:37:48.938Z,13.40
2019-05-15T21:40:18.070Z,13.40
2019-05-15T21:42:49.266Z,13.30
2019-05-15T21:45:18.539Z,13.30
2019-05-15T21:47:47.686Z,13.20
2019-05-15T21:50:19.090Z,13.20
2019-05-15T21:52:49.504Z,13.10
2019-05-15T21:55:18.680Z,13.10
2019-05-15T21:57:48.085Z,13.00
2019-05-15T22:00:28.875Z,12.90
2019-05-15T22:02:58.568Z,12.90
2019-05-15T22:05:28.493Z,12.80
2019-05-15T22:07:58.795Z,12.80
2019-05-15T22:10:28.839Z,12.80
2019-05-15T22:12:59.034Z,12.70
2019-05-15T22:15:28.577Z,12.70
2019-05-15T22:17:57.924Z,12.70
2019-05-15T22:20:29.906Z,12.60
2019-05-15T22:22:59.565Z,12.60
2019-05-15T22:25:28.180Z,12.60
2019-05-15T22:27:58.022Z,12.50
2019-05-15T22:30:29.891Z,12.50
2019-05-15T22:32:58.658Z,12.40
2019-05-15T22:35:29.452Z,12.40
2019-05-15T22:37:58.749Z,12.40
2019-05-15T22:40:29.035Z,12.30
2019-05-15T22:42:59.084Z,12.30
2019-05-15T22:45:28.760Z,12.20
2019-05-15T22:47:58.632Z,12.20
2019-05-15T22:50:28.220Z,12.10
2019-05-15T22:52:58.644Z,12.10
2019-05-15T22:55:28.873Z,12.00
2019-05-15T22:57:59.426Z,12.00
2019-05-15T23:00:29.239Z,12.00
2019-05-15T23:02:58.351Z,11.90
2019-05-15T23:05:29.346Z,11.90
2019-05-15T23:07:58.881Z,11.80
2019-05-15T23:10:29.296Z,11.80
2019-05-15T23:12:58.676Z,11.80
2019-05-15T23:15:28.153Z,11.80
2019-05-15T23:17:58.218Z,11.80
2019-05-15T23:20:28.481Z,11.70
2019-05-15T23:22:58.387Z,11.70
2019-05-15T23:25:28.953Z,11.70
2019-05-15T23:27:58.453Z,11.70
2019-05-15T23:30:28.804Z,11.70
2019-05-15T23:32:58.300Z,11.70
2019-05-15T23:35:35.658Z,11.60
2019-05-15T23:37:58.360Z,11.60
2019-05-15T23:40:28.789Z,11.60
2019-05-15T23:42:57.712Z,11.50
2019-05-15T23:45:28.762Z,11.50
2019-05-15T23:47:58.027Z,11.50
2019-05-15T23:50:28.902Z,11.40
2019-05-15T23:52:58.361Z,11.50
2019-05-15T23:55:28.661Z,11.40
2019-05-15T23:57:58.415Z,11.40
